createdAt,value
2022-12-16T00:01:31.154Z,100779.34
2022-12-16T00:04:02.373Z,100773.72
2022-12-16T00:06:36.456Z,100772.00
2022-12-16T00:09:07.421Z,100777.72
2022-12-16T00:11:39.470Z,100775.09
2022-12-16T00:14:10.237Z,100779.47
2022-12-16T00:16:41.064Z,100776.59
2022-12-16T00:19:12.131Z,100773.41
2022-12-16T00:21:43.244Z,100780.50
2022-12-16T00:24:14.275Z,100770.03
2022-12-16T00:26:45.233Z,100758.63
2022-12-16T00:29:16.027Z,100758.09
2022-12-16T00:31:50.018Z,100750.03
2022-12-16T00:34:22.586Z,100748.94
2022-12-16T00:36:53.810Z,100744.72
2022-12-16T00:39:25.014Z,100758.88
2022-12-16T00:41:56.078Z,100737.28
2022-12-16T00:44:26.964Z,100747.34
2022-12-16T00:46:57.828Z,100749.69
2022-12-16T00:49:29.066Z,100752.19
2022-12-16T00:51:59.946Z,100749.97
2022-12-16T00:54:30.876Z,100758.78
2022-12-16T00:57:01.941Z,100756.47
2022-12-16T00:59:32.719Z,100756.00
2022-12-16T01:02:03.714Z,100756.69
2022-12-16T01:04:34.813Z,100752.44
2022-12-16T01:07:05.752Z,100754.25
2022-12-16T01:09:36.667Z,100758.28
2022-12-16T01:12:07.924Z,100762.09
2022-12-16T01:14:38.332Z,100758.63
2022-12-16T01:17:09.272Z,100767.63
2022-12-16T01:19:40.140Z,100766.81
2022-12-16T01:22:10.917Z,100757.94
2022-12-16T01:24:41.727Z,100743.56
2022-12-16T01:27:13.395Z,100758.84
2022-12-16T01:29:45.042Z,100746.59
2022-12-16T01:32:17.498Z,100746.84
2022-12-16T01:34:56.292Z,100745.78
2022-12-16T01:37:28.240Z,100749.22
2022-12-16T01:39:58.537Z,100752.28
2022-12-16T01:42:34.917Z,100763.31
2022-12-16T01:45:28.357Z,100762.50
2022-12-16T01:48:03.593Z,100752.91
2022-12-16T01:50:35.017Z,100756.25
2022-12-16T01:53:05.399Z,100767.69
2022-12-16T01:55:45.712Z,100769.97
2022-12-16T01:58:28.431Z,100768.56
2022-12-16T02:00:59.707Z,100767.75
2022-12-16T02:03:34.861Z,100778.94
2022-12-16T02:06:08.534Z,100779.88
2022-12-16T02:08:39.404Z,100766.97
2022-12-16T02:14:34.015Z,100763.56
2022-12-16T02:17:22.951Z,100776.91
2022-12-16T02:20:38.006Z,100776.81
2022-12-16T02:23:23.954Z,100780.81
2022-12-16T02:26:13.077Z,100779.13
2022-12-16T02:29:05.690Z,100782.69
2022-12-16T02:31:53.107Z,100785.03
2022-12-16T02:34:31.115Z,100776.56
2022-12-16T02:37:13.862Z,100777.97
2022-12-16T02:40:18.568Z,100766.75
2022-12-16T02:42:57.816Z,100770.63
2022-12-16T02:48:18.859Z,100781.84
2022-12-16T02:50:53.899Z,100766.00
2022-12-16T02:53:25.602Z,100766.53
2022-12-16T02:56:20.935Z,100762.91
2022-12-16T02:59:26.256Z,100749.44
2022-12-16T03:02:35.773Z,100748.63
2022-12-16T03:05:19.961Z,100747.63
2022-12-16T03:07:52.400Z,100746.63
2022-12-16T03:10:27.004Z,100751.06
2022-12-16T03:12:59.049Z,100746.25
2022-12-16T03:15:33.716Z,100757.78
2022-12-16T03:20:57.189Z,100747.03
2022-12-16T03:23:39.303Z,100750.81
2022-12-16T03:26:15.755Z,100757.72
2022-12-16T03:28:59.816Z,100763.28
2022-12-16T03:32:04.703Z,100739.84
2022-12-16T03:37:48.809Z,100752.88
2022-12-16T03:40:20.156Z,100759.44
2022-12-16T03:42:51.745Z,100753.09
2022-12-16T03:45:27.190Z,100764.50
2022-12-16T03:48:00.961Z,100756.09
2022-12-16T03:53:23.505Z,100749.78
2022-12-16T03:55:57.841Z,100747.94
2022-12-16T03:58:28.618Z,100733.66
2022-12-16T04:00:59.761Z,100741.59
2022-12-16T04:03:30.988Z,100733.44
2022-12-16T04:06:02.178Z,100741.16
2022-12-16T04:11:37.992Z,100738.94
2022-12-16T04:14:29.039Z,100743.56
2022-12-16T04:17:38.137Z,100745.25
2022-12-16T04:20:52.404Z,100758.69
2022-12-16T04:23:46.080Z,100774.66
2022-12-16T04:26:29.218Z,100768.34
2022-12-16T04:28:59.933Z,100762.81
2022-12-16T04:31:31.007Z,100765.69
2022-12-16T04:34:20.068Z,100770.59
2022-12-16T04:37:08.883Z,100768.97
2022-12-16T04:39:58.193Z,100759.34
2022-12-16T04:45:53.591Z,100773.72
2022-12-16T04:48:42.286Z,100784.88
2022-12-16T04:51:31.271Z,100773.09
2022-12-16T04:54:19.980Z,100773.44
2022-12-16T04:57:08.943Z,100764.41
2022-12-16T05:00:01.012Z,100760.19
2022-12-16T05:02:51.398Z,100748.41
2022-12-16T05:05:40.493Z,100773.28
2022-12-16T05:08:29.564Z,100776.53
2022-12-16T05:11:26.311Z,100783.50
2022-12-16T05:14:15.726Z,100790.31
2022-12-16T05:17:05.152Z,100790.34
2022-12-16T05:19:54.241Z,100796.28
2022-12-16T05:22:43.113Z,100790.22
2022-12-16T05:25:31.631Z,100800.25
2022-12-16T05:28:20.526Z,100797.44
2022-12-16T05:34:14.805Z,100795.63
2022-12-16T05:37:03.897Z,100796.78
2022-12-16T05:39:52.769Z,100799.19
2022-12-16T05:42:42.203Z,100806.63
2022-12-16T05:45:31.080Z,100811.84
2022-12-16T05:48:20.123Z,100821.34
2022-12-16T05:51:09.223Z,100817.59
2022-12-16T05:53:58.159Z,100801.75
2022-12-16T05:56:47.147Z,100817.59
2022-12-16T05:59:36.342Z,100818.47
2022-12-16T06:02:25.848Z,100818.69
2022-12-16T06:05:15.116Z,100827.63
2022-12-16T06:08:11.604Z,100822.91
2022-12-16T06:11:00.777Z,100830.09
2022-12-16T06:13:50.064Z,100837.63
2022-12-16T06:16:39.179Z,100839.75
2022-12-16T06:19:27.820Z,100872.44
2022-12-16T06:22:16.939Z,100878.28
2022-12-16T06:25:06.198Z,100866.72
2022-12-16T06:27:55.212Z,100882.16
2022-12-16T06:30:44.385Z,100891.97
2022-12-16T06:33:33.917Z,100885.72
2022-12-16T06:36:23.151Z,100892.81
2022-12-16T06:39:12.015Z,100893.97
2022-12-16T06:42:01.431Z,100904.97
2022-12-16T06:44:51.158Z,100898.47
2022-12-16T06:47:40.335Z,100909.31
2022-12-16T06:50:29.446Z,100913.25
2022-12-16T06:53:18.295Z,100921.81
2022-12-16T06:56:07.327Z,100918.34
2022-12-16T06:58:56.390Z,100908.09
2022-12-16T07:01:45.529Z,100911.78
2022-12-16T07:04:34.960Z,100904.56
2022-12-16T07:07:23.941Z,100910.13
2022-12-16T07:10:12.777Z,100921.03
2022-12-16T07:13:01.807Z,100921.41
2022-12-16T07:15:50.585Z,100925.50
2022-12-16T07:18:39.770Z,100920.28
2022-12-16T07:21:28.731Z,100924.81
2022-12-16T07:24:17.593Z,100936.09
2022-12-16T07:27:06.741Z,100941.56
2022-12-16T07:29:55.640Z,100946.47
2022-12-16T07:32:44.480Z,100951.63
2022-12-16T07:35:34.104Z,100949.91
2022-12-16T07:38:23.084Z,100949.81
2022-12-16T07:41:11.744Z,100951.25
2022-12-16T07:44:00.860Z,100948.28
2022-12-16T07:46:50.546Z,100959.13
2022-12-16T07:49:39.955Z,100940.69
2022-12-16T07:52:29.244Z,100946.88
2022-12-16T07:55:17.906Z,100956.72
2022-12-16T07:58:11.347Z,100950.13
2022-12-16T08:01:02.750Z,100951.00
2022-12-16T08:03:55.870Z,100950.00
2022-12-16T08:06:44.689Z,100960.63
2022-12-16T08:09:33.495Z,100963.06
2022-12-16T08:12:22.456Z,100954.19
2022-12-16T08:15:11.306Z,100937.31
2022-12-16T08:18:08.677Z,100940.78
2022-12-16T08:20:58.119Z,100947.94
2022-12-16T08:23:47.099Z,100937.81
2022-12-16T08:26:35.815Z,100940.09
2022-12-16T08:29:43.785Z,100946.97
2022-12-16T08:32:34.451Z,100940.16
2022-12-16T08:35:23.701Z,100942.97
2022-12-16T08:38:18.707Z,100938.22
2022-12-16T08:41:07.594Z,100936.66
2022-12-16T08:43:57.160Z,100933.16
2022-12-16T08:46:46.125Z,100944.25
2022-12-16T08:49:35.622Z,100962.88
2022-12-16T08:52:24.371Z,100966.91
2022-12-16T08:55:13.206Z,100962.13
2022-12-16T08:58:02.278Z,100963.25
2022-12-16T09:00:51.220Z,100979.56
2022-12-16T09:03:40.306Z,100980.69
2022-12-16T09:06:29.175Z,100979.50
2022-12-16T09:09:18.045Z,100983.78
2022-12-16T09:12:06.795Z,100993.47
2022-12-16T09:14:56.155Z,100989.34
2022-12-16T09:17:45.351Z,100994.31
2022-12-16T09:20:34.875Z,101000.09
2022-12-16T09:23:24.719Z,101004.59
2022-12-16T09:26:17.490Z,101012.06
2022-12-16T09:29:06.893Z,101016.88
2022-12-16T09:31:55.711Z,101023.91
2022-12-16T09:34:44.786Z,101015.41
2022-12-16T09:37:33.910Z,101013.88
2022-12-16T09:40:23.718Z,101024.19
2022-12-16T09:43:21.072Z,101031.25
2022-12-16T09:46:19.733Z,101009.94
2022-12-16T09:49:34.792Z,101009.72
2022-12-16T09:52:26.782Z,101017.19
2022-12-16T09:55:15.960Z,101013.88
2022-12-16T09:58:05.639Z,101012.91
2022-12-16T10:00:55.630Z,101012.59
2022-12-16T10:03:56.715Z,101016.28
2022-12-16T10:07:18.992Z,101011.47
2022-12-16T10:10:37.178Z,101020.22
2022-12-16T10:13:55.523Z,101006.78
2022-12-16T10:16:53.752Z,101002.34
2022-12-16T10:20:08.715Z,101008.09
2022-12-16T10:23:16.753Z,100999.38
2022-12-16T10:26:33.414Z,100995.31
2022-12-16T10:29:36.421Z,100995.47
2022-12-16T10:32:43.932Z,100993.13
2022-12-16T10:36:08.518Z,100998.81
2022-12-16T10:39:11.394Z,101016.03
2022-12-16T10:42:06.811Z,101021.78
2022-12-16T10:45:14.993Z,101017.44
2022-12-16T10:48:04.451Z,101035.88
2022-12-16T10:50:53.526Z,101038.69
2022-12-16T10:53:48.848Z,101041.13
2022-12-16T10:57:21.896Z,101054.22
2022-12-16T11:00:10.793Z,101048.84
2022-12-16T11:02:59.847Z,101036.56
2022-12-16T11:06:13.145Z,101041.56
2022-12-16T11:09:02.293Z,101039.50
2022-12-16T11:11:51.675Z,101036.75
2022-12-16T11:15:12.409Z,101049.72
2022-12-16T11:17:59.036Z,101042.25
2022-12-16T11:20:48.307Z,101037.72
2022-12-16T11:23:39.214Z,101047.47
2022-12-16T11:26:36.051Z,101050.94
2022-12-16T11:29:37.318Z,101053.56
2022-12-16T11:32:35.367Z,101044.13
2022-12-16T11:35:26.519Z,101052.94
2022-12-16T11:38:16.106Z,101057.47
2022-12-16T11:41:05.658Z,101048.81
2022-12-16T11:43:56.260Z,101040.28
2022-12-16T11:46:49.351Z,101042.97
2022-12-16T11:49:45.525Z,101035.00
2022-12-16T11:52:37.767Z,101043.25
2022-12-16T11:56:05.953Z,101028.91
2022-12-16T11:59:10.891Z,101010.53
2022-12-16T12:02:06.275Z,101009.66
2022-12-16T12:04:57.184Z,101006.16
2022-12-16T12:07:55.665Z,101005.06
2022-12-16T12:10:51.129Z,101003.31
2022-12-16T12:14:20.703Z,100996.84
2022-12-16T12:17:20.574Z,101008.25
2022-12-16T12:20:24.567Z,101011.28
2022-12-16T12:23:16.136Z,101010.31
2022-12-16T12:26:23.139Z,101007.72
2022-12-16T12:29:24.773Z,101005.38
2022-12-16T12:32:36.379Z,100988.97
2022-12-16T12:35:53.448Z,100969.63
2022-12-16T12:39:18.279Z,100966.06
2022-12-16T12:42:17.682Z,100972.31
2022-12-16T12:45:22.000Z,100969.03
2022-12-16T12:48:18.695Z,100978.94
2022-12-16T12:51:18.230Z,100978.94
2022-12-16T12:54:20.735Z,100991.63
2022-12-16T12:57:12.758Z,100991.63
2022-12-16T13:00:21.430Z,100996.34
2022-12-16T13:03:22.694Z,100990.41
2022-12-16T13:06:11.949Z,100981.47
2022-12-16T13:09:16.760Z,100998.81
2022-12-16T13:12:27.241Z,101004.44
2022-12-16T13:15:26.706Z,101007.69
2022-12-16T13:18:22.181Z,100999.78
2022-12-16T13:21:13.096Z,100996.28
2022-12-16T13:24:05.508Z,100997.03
2022-12-16T13:26:56.363Z,100995.59
2022-12-16T13:29:45.515Z,100995.31
2022-12-16T13:32:42.983Z,101009.47
2022-12-16T13:35:32.198Z,101001.00
2022-12-16T13:38:23.257Z,101001.09
2022-12-16T13:41:39.262Z,100984.63
2022-12-16T13:44:28.710Z,100983.91
2022-12-16T13:47:18.352Z,100978.22
2022-12-16T13:50:10.437Z,100973.47
2022-12-16T13:53:12.047Z,100977.78
2022-12-16T13:56:13.102Z,100974.75
2022-12-16T13:59:06.333Z,100972.84
2022-12-16T14:02:08.381Z,100972.63
2022-12-16T14:05:07.621Z,100958.19
2022-12-16T14:07:59.734Z,100968.50
2022-12-16T14:10:55.721Z,100967.78
2022-12-16T14:13:51.113Z,100961.59
2022-12-16T14:17:06.170Z,100957.41
2022-12-16T14:20:07.191Z,100947.50
2022-12-16T14:23:32.474Z,100949.41
2022-12-16T14:26:23.937Z,100941.78
2022-12-16T14:29:13.045Z,100951.56
2022-12-16T14:32:03.649Z,100947.28
2022-12-16T14:34:56.799Z,100946.56
2022-12-16T14:37:56.786Z,100947.66
2022-12-16T14:40:45.810Z,100946.03
2022-12-16T14:43:41.678Z,100941.69
2022-12-16T14:46:49.297Z,100951.97
2022-12-16T14:49:41.892Z,100956.31
2022-12-16T14:52:56.943Z,100949.88
2022-12-16T14:55:54.268Z,100953.34
2022-12-16T14:58:44.777Z,100955.75
2022-12-16T15:01:43.915Z,100959.03
2022-12-16T15:04:37.837Z,100961.03
2022-12-16T15:07:31.380Z,100967.28
2022-12-16T15:10:21.561Z,100965.66
2022-12-16T15:13:10.624Z,100957.44
2022-12-16T15:16:05.310Z,100957.59
2022-12-16T15:19:03.237Z,100957.28
2022-12-16T15:21:56.285Z,100955.19
2022-12-16T15:24:45.946Z,100943.44
2022-12-16T15:27:56.090Z,100944.59
2022-12-16T15:31:06.616Z,100940.72
2022-12-16T15:33:58.561Z,100948.16
2022-12-16T15:36:52.263Z,100939.56
2022-12-16T15:39:51.017Z,100930.44
2022-12-16T15:42:49.419Z,100931.38
2022-12-16T15:45:46.547Z,100932.84
2022-12-16T15:48:42.950Z,100935.66
2022-12-16T15:51:50.526Z,100946.00
2022-12-16T15:54:43.504Z,100946.00
2022-12-16T15:57:49.209Z,100934.00
2022-12-16T16:00:47.330Z,100927.69
2022-12-16T16:03:49.492Z,100924.47
2022-12-16T16:06:48.761Z,100932.38
2022-12-16T16:09:58.136Z,100926.97
2022-12-16T16:13:07.039Z,100935.06
2022-12-16T16:15:56.117Z,100929.59
2022-12-16T16:18:45.092Z,100925.03
2022-12-16T16:21:34.167Z,100946.59
2022-12-16T16:24:23.430Z,100948.47
2022-12-16T16:27:14.299Z,100942.13
2022-12-16T16:30:03.062Z,100959.22
2022-12-16T16:32:52.343Z,100942.28
2022-12-16T16:35:41.394Z,100942.47
2022-12-16T16:38:33.708Z,100951.22
2022-12-16T16:41:22.774Z,100955.28
2022-12-16T16:44:16.494Z,100957.41
2022-12-16T16:47:08.481Z,100952.50
2022-12-16T16:50:07.489Z,100967.25
2022-12-16T16:52:56.411Z,100974.25
2022-12-16T16:55:45.674Z,100972.03
2022-12-16T16:58:40.863Z,100972.38
2022-12-16T17:01:37.955Z,100969.94
2022-12-16T17:04:27.741Z,100980.56
2022-12-16T17:07:16.802Z,100988.50
2022-12-16T17:10:06.090Z,100998.38
2022-12-16T17:12:58.589Z,100998.94
2022-12-16T17:15:54.452Z,101001.78
2022-12-16T17:18:47.754Z,100999.38
2022-12-16T17:21:39.664Z,100987.16
2022-12-16T17:24:28.526Z,101003.94
2022-12-16T17:27:17.248Z,100993.00
2022-12-16T17:30:06.658Z,100996.63
2022-12-16T17:32:55.830Z,101002.06
2022-12-16T17:35:44.458Z,101012.63
2022-12-16T17:38:33.591Z,101016.19
2022-12-16T17:41:22.488Z,101014.28
2022-12-16T17:44:13.416Z,101009.28
2022-12-16T17:47:02.293Z,101025.31
2022-12-16T17:49:51.160Z,101013.97
2022-12-16T17:52:40.166Z,101018.63
2022-12-16T17:55:29.529Z,101010.63
2022-12-16T17:58:18.985Z,101018.16
2022-12-16T18:01:08.380Z,101009.63
2022-12-16T18:03:57.332Z,101012.50
2022-12-16T18:06:46.729Z,101013.78
2022-12-16T18:09:35.625Z,101012.44
2022-12-16T18:12:24.369Z,101017.72
2022-12-16T18:15:13.245Z,101018.31
2022-12-16T18:18:02.308Z,101021.22
2022-12-16T18:20:51.074Z,101028.53
2022-12-16T18:23:40.190Z,101027.75
2022-12-16T18:26:30.436Z,101025.63
2022-12-16T18:29:19.316Z,101027.25
2022-12-16T18:32:09.054Z,101023.97
2022-12-16T18:34:58.095Z,101033.03
2022-12-16T18:37:47.020Z,101027.25
2022-12-16T18:40:35.751Z,101025.94
2022-12-16T18:43:24.561Z,101029.47
2022-12-16T18:46:14.574Z,101036.59
2022-12-16T18:49:03.829Z,101027.44
2022-12-16T18:51:52.738Z,101030.44
2022-12-16T18:54:41.789Z,101032.97
2022-12-16T18:57:32.008Z,101029.19
2022-12-16T19:00:24.785Z,101031.25
2022-12-16T19:03:13.681Z,101035.03
2022-12-16T19:06:02.686Z,101034.81
2022-12-16T19:08:51.739Z,101040.06
2022-12-16T19:11:40.452Z,101037.44
2022-12-16T19:14:29.776Z,101030.16
2022-12-16T19:17:18.531Z,101034.28
2022-12-16T19:20:07.482Z,101032.41
2022-12-16T19:22:56.424Z,101033.03
2022-12-16T19:25:45.280Z,101045.44
2022-12-16T19:28:36.583Z,101048.00
2022-12-16T19:31:31.035Z,101049.19
2022-12-16T19:34:21.731Z,101059.22
2022-12-16T19:37:27.596Z,101063.59
2022-12-16T19:40:16.783Z,101072.75
2022-12-16T19:43:06.197Z,101073.56
2022-12-16T19:45:56.372Z,101063.47
2022-12-16T19:48:45.523Z,101069.69
2022-12-16T19:51:34.607Z,101070.63
2022-12-16T19:54:23.702Z,101071.31
2022-12-16T19:57:12.627Z,101061.81
2022-12-16T20:00:01.698Z,101064.97
2022-12-16T20:03:00.728Z,101060.22
2022-12-16T20:05:49.880Z,101057.97
2022-12-16T20:08:38.618Z,101050.00
2022-12-16T20:11:28.558Z,101043.75
2022-12-16T20:14:17.582Z,101050.78
2022-12-16T20:17:06.616Z,101051.56
2022-12-16T20:19:58.634Z,101054.56
2022-12-16T20:22:47.575Z,101048.44
2022-12-16T20:25:36.463Z,101048.00
2022-12-16T20:28:25.414Z,101045.28
2022-12-16T20:31:14.191Z,101039.34
2022-12-16T20:34:03.369Z,101039.81
2022-12-16T20:37:12.216Z,101032.91
2022-12-16T20:40:01.431Z,101046.22
2022-12-16T20:42:51.427Z,101042.09
2022-12-16T20:46:00.584Z,101025.81
2022-12-16T20:48:49.676Z,101020.75
2022-12-16T20:51:38.751Z,101012.22
2022-12-16T20:54:32.938Z,101021.31
2022-12-16T20:57:21.953Z,101033.00
2022-12-16T21:00:11.084Z,101037.59
2022-12-16T21:02:59.916Z,101040.47
2022-12-16T21:05:49.434Z,101035.34
2022-12-16T21:08:38.101Z,101040.94
2022-12-16T21:11:26.950Z,101052.22
2022-12-16T21:14:16.417Z,101035.13
2022-12-16T21:17:05.374Z,101036.03
2022-12-16T21:19:54.139Z,101031.66
2022-12-16T21:22:45.243Z,101029.97
2022-12-16T21:25:34.605Z,101031.25
2022-12-16T21:28:23.706Z,101036.50
2022-12-16T21:31:12.571Z,101028.84
2022-12-16T21:34:01.553Z,101029.81
2022-12-16T21:36:50.538Z,101021.47
2022-12-16T21:39:40.724Z,101026.03
2022-12-16T21:42:34.787Z,101032.22
2022-12-16T21:45:25.324Z,101029.25
2022-12-16T21:48:14.852Z,101029.19
2022-12-16T21:51:03.666Z,101026.38
2022-12-16T21:53:53.463Z,101026.84
2022-12-16T21:56:42.484Z,101033.25
2022-12-16T21:59:31.572Z,101033.81
2022-12-16T22:02:20.487Z,101038.69
2022-12-16T22:05:09.299Z,101044.31
2022-12-16T22:07:58.083Z,101037.13
2022-12-16T22:10:46.936Z,101037.91
2022-12-16T22:13:36.404Z,101030.25
2022-12-16T22:16:26.465Z,101029.66
2022-12-16T22:19:15.339Z,101027.94
2022-12-16T22:22:04.258Z,101016.13
2022-12-16T22:25:01.498Z,101025.84
2022-12-16T22:27:50.939Z,101027.44
2022-12-16T22:30:40.954Z,101023.78
2022-12-16T22:33:30.957Z,101021.78
2022-12-16T22:36:24.386Z,101015.78
2022-12-16T22:39:13.629Z,101014.47
2022-12-16T22:42:02.781Z,101010.34
2022-12-16T22:44:51.602Z,101003.97
2022-12-16T22:47:40.834Z,100994.88
2022-12-16T22:50:29.694Z,101002.69
2022-12-16T22:53:18.645Z,101004.13
2022-12-16T22:56:12.331Z,101000.78
2022-12-16T22:59:01.478Z,100980.75
2022-12-16T23:01:50.815Z,100991.34
2022-12-16T23:04:41.128Z,100978.22
2022-12-16T23:07:29.951Z,100971.94
2022-12-16T23:10:18.711Z,100967.22
2022-12-16T23:13:07.646Z,100977.31
2022-12-16T23:15:56.696Z,100971.91
2022-12-16T23:18:45.844Z,100970.53
2022-12-16T23:21:37.222Z,100972.13
2022-12-16T23:24:26.736Z,100967.63
2022-12-16T23:27:16.002Z,100961.22
2022-12-16T23:30:05.091Z,100962.94
2022-12-16T23:32:58.616Z,100966.25
2022-12-16T23:35:47.820Z,100971.22
2022-12-16T23:38:36.992Z,100958.69
2022-12-16T23:41:26.055Z,100952.75
2022-12-16T23:44:14.875Z,100950.63
2022-12-16T23:47:03.765Z,100956.00
2022-12-16T23:49:52.751Z,100947.59
2022-12-16T23:52:47.540Z,100936.22
2022-12-16T23:55:36.636Z,100938.63
2022-12-16T23:58:26.727Z,100935.03
